createdAt,value
2023-05-23T00:02:15.708Z,69.40
2023-05-23T00:04:45.906Z,70.55
2023-05-23T00:07:15.562Z,66.93
2023-05-23T00:09:45.494Z,67.03
2023-05-23T00:12:15.138Z,65.72
2023-05-23T00:14:44.777Z,65.43
2023-05-23T00:17:14.601Z,79.90
2023-05-23T00:19:47.181Z,102.72
2023-05-23T00:22:18.289Z,82.65
2023-05-23T00:24:47.970Z,108.22
2023-05-23T00:27:17.701Z,104.32
2023-05-23T00:29:47.454Z,141.50
2023-05-23T00:32:17.182Z,114.18
2023-05-23T00:34:47.204Z,84.53
2023-05-23T00:37:17.999Z,72.05
2023-05-23T00:39:47.602Z,72.45
2023-05-23T00:42:17.314Z,71.63
2023-05-23T00:44:47.086Z,70.00
2023-05-23T00:47:16.864Z,71.05
2023-05-23T00:49:47.242Z,71.45
2023-05-23T00:52:17.524Z,71.88
2023-05-23T00:54:47.191Z,71.18
2023-05-23T00:57:16.900Z,70.18
2023-05-23T00:59:48.469Z,67.60
2023-05-23T01:02:18.213Z,69.22
2023-05-23T01:04:47.981Z,65.32
2023-05-23T01:07:17.722Z,65.70
2023-05-23T01:09:47.417Z,68.30
2023-05-23T01:12:23.722Z,67.35
2023-05-23T01:14:54.020Z,63.80
2023-05-23T01:17:45.348Z,61.28
2023-05-23T01:20:17.814Z,60.15
2023-05-23T01:23:02.491Z,55.97
2023-05-23T01:25:51.769Z,55.10
2023-05-23T01:28:22.869Z,58.85
2023-05-23T01:30:54.533Z,54.45
2023-05-23T01:33:25.722Z,56.03
2023-05-23T01:35:55.619Z,56.65
2023-05-23T01:38:25.281Z,56.97
2023-05-23T01:40:55.034Z,55.97
2023-05-23T01:43:25.685Z,54.95
2023-05-23T01:45:56.842Z,52.47
2023-05-23T01:48:27.223Z,55.88
2023-05-23T01:50:58.315Z,59.85
2023-05-23T01:53:28.260Z,60.60
2023-05-23T01:58:28.371Z,61.03
2023-05-23T02:00:58.413Z,68.55
2023-05-23T02:03:28.149Z,72.30
2023-05-23T02:05:57.821Z,67.70
2023-05-23T02:08:27.515Z,75.68
2023-05-23T02:10:57.254Z,85.30
2023-05-23T02:13:27.185Z,90.90
2023-05-23T02:18:27.785Z,90.23
2023-05-23T02:21:00.613Z,91.85
2023-05-23T02:23:30.316Z,93.85
2023-05-23T02:25:59.955Z,99.28
2023-05-23T02:28:29.644Z,94.35
2023-05-23T02:30:59.481Z,89.88
2023-05-23T02:33:29.202Z,85.22
2023-05-23T02:35:58.797Z,87.47
2023-05-23T02:38:29.018Z,78.80
2023-05-23T02:40:59.273Z,70.13
2023-05-23T02:43:28.910Z,70.00
2023-05-23T02:45:58.496Z,70.13
2023-05-23T02:48:28.115Z,63.85
2023-05-23T02:50:58.049Z,66.18
2023-05-23T02:53:29.766Z,64.93
2023-05-23T02:55:59.525Z,71.15
2023-05-23T02:58:29.119Z,75.47
2023-05-23T03:00:58.854Z,75.45
2023-05-23T03:03:30.383Z,76.25
2023-05-23T03:06:12.148Z,79.03
2023-05-23T03:08:42.050Z,73.95
2023-05-23T03:13:40.657Z,58.73
2023-05-23T03:16:10.522Z,51.50
2023-05-23T03:21:09.542Z,49.55
2023-05-23T03:26:11.440Z,54.17
2023-05-23T03:28:41.053Z,53.65
2023-05-23T03:31:10.810Z,52.47
2023-05-23T03:33:40.752Z,48.65
2023-05-23T03:36:10.459Z,55.47
2023-05-23T03:38:40.103Z,50.97
2023-05-23T03:41:09.960Z,48.35
2023-05-23T03:46:08.922Z,52.97
2023-05-23T03:48:38.790Z,48.97
2023-05-23T03:53:37.896Z,47.55
2023-05-23T03:58:36.673Z,54.03
2023-05-23T04:01:06.499Z,51.45
2023-05-23T04:06:05.754Z,56.47
2023-05-23T04:11:10.182Z,63.45
2023-05-23T04:13:39.904Z,69.10
2023-05-23T04:16:09.854Z,67.90
2023-05-23T04:18:40.838Z,70.85
2023-05-23T04:21:11.126Z,71.75
2023-05-23T04:23:40.925Z,66.28
2023-05-23T04:26:11.727Z,66.90
2023-05-23T04:28:41.697Z,68.28
2023-05-23T04:31:11.816Z,70.03
2023-05-23T04:33:41.521Z,70.32
2023-05-23T04:36:11.761Z,67.43
2023-05-23T04:38:42.613Z,65.30
2023-05-23T04:41:12.427Z,61.75
2023-05-23T04:46:15.513Z,63.83
2023-05-23T04:48:46.299Z,63.92
2023-05-23T04:51:16.808Z,65.88
2023-05-23T04:53:46.541Z,60.72
2023-05-23T04:56:16.253Z,61.65
2023-05-23T04:58:49.103Z,59.55
2023-05-23T05:01:18.834Z,68.68
2023-05-23T05:03:49.076Z,64.43
2023-05-23T05:06:18.921Z,65.18
2023-05-23T05:11:18.825Z,71.68
2023-05-23T05:13:48.807Z,73.05
2023-05-23T05:16:18.584Z,67.47
2023-05-23T05:18:48.435Z,64.38
2023-05-23T05:21:18.175Z,67.28
2023-05-23T05:23:47.794Z,62.25
2023-05-23T05:26:17.789Z,56.63
2023-05-23T05:28:47.443Z,57.40
2023-05-23T05:31:17.285Z,53.05
2023-05-23T05:33:47.417Z,58.42
2023-05-23T05:36:18.435Z,56.22
2023-05-23T05:38:48.212Z,68.20
2023-05-23T05:43:47.048Z,68.93
2023-05-23T05:46:16.713Z,74.13
2023-05-23T05:51:15.587Z,74.57
2023-05-23T05:53:45.207Z,68.88
2023-05-23T05:58:44.342Z,54.33
2023-05-23T06:01:14.290Z,32.03
2023-05-23T06:03:44.265Z,33.97
2023-05-23T06:06:14.802Z,28.70
2023-05-23T06:08:45.007Z,22.42
2023-05-23T06:11:14.871Z,24.95
2023-05-23T06:13:44.888Z,27.38
2023-05-23T06:16:15.145Z,32.22
2023-05-23T06:18:45.336Z,26.70
2023-05-23T06:21:15.278Z,21.92
2023-05-23T06:23:45.358Z,21.75
2023-05-23T06:26:15.613Z,20.48
2023-05-23T06:28:45.644Z,22.25
2023-05-23T06:31:15.718Z,22.15
2023-05-23T06:33:45.693Z,22.98
2023-05-23T06:36:15.982Z,23.40
2023-05-23T06:38:45.946Z,25.00
2023-05-23T06:41:15.781Z,23.65
2023-05-23T06:43:45.758Z,21.50
2023-05-23T06:46:15.944Z,21.10
2023-05-23T06:48:46.030Z,20.45
2023-05-23T06:51:16.096Z,20.13
2023-05-23T06:53:46.240Z,19.77
2023-05-23T06:56:16.688Z,17.63
2023-05-23T06:58:48.347Z,17.73
2023-05-23T07:01:19.277Z,16.50
2023-05-23T07:03:53.964Z,20.17
2023-05-23T07:06:24.514Z,17.45
2023-05-23T07:08:54.940Z,16.70
2023-05-23T07:11:27.388Z,17.67
2023-05-23T07:13:59.934Z,15.95
2023-05-23T07:16:33.656Z,18.38
2023-05-23T07:19:08.407Z,19.10
2023-05-23T07:21:39.896Z,18.20
2023-05-23T07:24:13.842Z,18.98
2023-05-23T07:26:44.006Z,18.00
2023-05-23T07:29:14.674Z,15.80
2023-05-23T07:31:48.044Z,16.33
2023-05-23T07:34:18.439Z,16.05
2023-05-23T07:36:56.208Z,17.50
2023-05-23T07:39:26.427Z,18.33
2023-05-23T07:41:56.262Z,17.27
2023-05-23T07:44:26.720Z,15.73
2023-05-23T07:46:59.198Z,17.42
2023-05-23T07:49:29.959Z,16.33
2023-05-23T07:51:59.829Z,17.63
2023-05-23T07:54:30.092Z,17.08
2023-05-23T07:56:59.939Z,17.90
2023-05-23T07:59:31.755Z,18.63
2023-05-23T08:02:01.604Z,19.90
2023-05-23T08:04:35.653Z,26.08
2023-05-23T08:07:06.962Z,32.67
2023-05-23T08:09:37.243Z,39.13
2023-05-23T08:12:07.589Z,44.20
2023-05-23T08:14:49.821Z,43.03
2023-05-23T08:17:21.339Z,38.55
2023-05-23T08:19:57.689Z,38.20
2023-05-23T08:22:28.678Z,40.90
2023-05-23T08:24:58.657Z,44.22
2023-05-23T08:27:28.666Z,42.92
2023-05-23T08:29:58.735Z,41.17
2023-05-23T08:32:28.838Z,40.92
2023-05-23T08:34:58.989Z,43.63
2023-05-23T08:37:30.960Z,48.72
2023-05-23T08:40:00.969Z,46.47
2023-05-23T08:42:31.104Z,51.00
2023-05-23T08:45:01.115Z,43.97
2023-05-23T08:47:32.113Z,45.72
2023-05-23T08:50:03.010Z,44.78
2023-05-23T08:52:33.317Z,38.40
2023-05-23T08:55:04.519Z,40.25
2023-05-23T08:57:34.381Z,41.22
2023-05-23T09:00:07.051Z,42.10
2023-05-23T09:02:37.618Z,40.08
2023-05-23T09:05:07.843Z,45.40
2023-05-23T09:07:38.606Z,42.10
2023-05-23T09:10:09.540Z,41.53
2023-05-23T09:12:42.700Z,43.28
2023-05-23T09:15:13.028Z,38.30
2023-05-23T09:17:43.258Z,36.58
2023-05-23T09:20:17.950Z,38.38
2023-05-23T09:22:51.787Z,41.20
2023-05-23T09:25:21.720Z,44.30
2023-05-23T09:27:51.635Z,38.13
2023-05-23T09:30:21.869Z,39.90
2023-05-23T09:33:05.915Z,35.80
2023-05-23T09:35:36.332Z,42.65
2023-05-23T09:38:06.060Z,36.17
2023-05-23T09:40:36.060Z,39.40
2023-05-23T09:43:09.289Z,42.00
2023-05-23T09:45:39.179Z,39.72
2023-05-23T09:48:15.803Z,42.00
2023-05-23T09:50:52.929Z,41.58
2023-05-23T09:53:24.384Z,34.85
2023-05-23T09:55:54.730Z,31.23
2023-05-23T09:58:27.404Z,31.63
2023-05-23T10:00:59.873Z,32.42
2023-05-23T10:03:50.024Z,30.75
2023-05-23T10:06:20.363Z,29.00
2023-05-23T10:08:53.895Z,26.80
2023-05-23T10:11:39.281Z,31.77
2023-05-23T10:14:12.674Z,33.88
2023-05-23T10:17:12.288Z,32.22
2023-05-23T10:22:13.526Z,34.45
2023-05-23T10:24:44.153Z,33.25
2023-05-23T10:27:15.164Z,31.85
2023-05-23T10:29:45.770Z,31.27
2023-05-23T10:32:17.027Z,33.95
2023-05-23T10:35:05.683Z,31.42
2023-05-23T10:37:38.927Z,30.45
2023-05-23T10:40:19.354Z,35.13
2023-05-23T10:42:52.700Z,33.03
2023-05-23T10:45:26.941Z,33.35
2023-05-23T10:47:57.436Z,36.58
2023-05-23T10:50:35.336Z,40.90
2023-05-23T10:53:07.981Z,35.20
2023-05-23T10:55:43.136Z,31.63
2023-05-23T10:58:14.171Z,34.63
2023-05-23T11:00:55.069Z,34.17
2023-05-23T11:03:38.525Z,35.50
2023-05-23T11:06:09.038Z,32.78
2023-05-23T11:08:48.581Z,25.70
2023-05-23T11:11:19.504Z,23.30
2023-05-23T11:14:04.792Z,24.25
2023-05-23T11:16:45.367Z,23.63
2023-05-23T11:19:29.504Z,23.50
2023-05-23T11:21:59.835Z,22.42
2023-05-23T11:24:47.769Z,22.35
2023-05-23T11:27:21.724Z,21.83
2023-05-23T11:30:02.243Z,25.75
2023-05-23T11:32:33.263Z,22.60
2023-05-23T11:35:11.164Z,23.13
2023-05-23T11:37:42.127Z,23.05
2023-05-23T11:40:30.414Z,25.45
2023-05-23T11:43:01.596Z,22.63
2023-05-23T11:45:33.939Z,25.05
2023-05-23T11:48:17.148Z,24.40
2023-05-23T11:50:57.277Z,25.08
2023-05-23T11:53:30.579Z,24.45
2023-05-23T11:56:01.961Z,24.38
2023-05-23T11:58:39.315Z,26.65
2023-05-23T12:01:12.636Z,25.35
2023-05-23T12:03:50.115Z,27.23
2023-05-23T12:06:27.575Z,26.83
2023-05-23T12:08:57.891Z,26.77
2023-05-23T12:11:31.166Z,30.10
2023-05-23T12:14:07.961Z,28.27
2023-05-23T12:16:39.264Z,29.20
2023-05-23T12:19:09.711Z,28.88
2023-05-23T12:21:47.288Z,28.05
2023-05-23T12:24:20.674Z,27.33
2023-05-23T12:26:54.927Z,28.80
2023-05-23T12:29:25.715Z,31.27
2023-05-23T12:31:55.644Z,33.97
2023-05-23T12:34:25.529Z,29.88
2023-05-23T12:39:39.557Z,28.92
2023-05-23T12:42:12.936Z,29.42
2023-05-23T12:44:45.205Z,29.13
2023-05-23T12:47:15.319Z,32.65
2023-05-23T12:49:48.372Z,33.22
2023-05-23T12:52:18.352Z,31.10
2023-05-23T12:54:48.311Z,30.42
2023-05-23T12:57:19.166Z,32.33
2023-05-23T12:59:49.084Z,31.10
2023-05-23T13:02:19.333Z,30.58
2023-05-23T13:04:49.277Z,31.80
2023-05-23T13:07:19.725Z,32.30
2023-05-23T13:09:49.747Z,31.38
2023-05-23T13:12:19.578Z,32.88
2023-05-23T13:17:19.153Z,29.60
2023-05-23T13:19:48.788Z,32.50
2023-05-23T13:22:18.873Z,33.88
2023-05-23T13:24:48.509Z,37.58
2023-05-23T13:27:18.318Z,35.58
2023-05-23T13:32:17.620Z,33.22
2023-05-23T13:34:47.649Z,36.38
2023-05-23T13:37:17.781Z,36.60
2023-05-23T13:39:47.858Z,36.50
2023-05-23T13:42:17.987Z,38.22
2023-05-23T13:44:48.005Z,37.80
2023-05-23T13:47:18.940Z,37.85
2023-05-23T13:49:49.081Z,38.17
2023-05-23T13:52:21.899Z,41.35
2023-05-23T13:54:55.456Z,39.13
2023-05-23T13:57:25.858Z,34.63
2023-05-23T13:59:55.929Z,34.08
2023-05-23T14:02:25.923Z,34.55
2023-05-23T14:04:56.040Z,35.65
2023-05-23T14:07:27.377Z,34.83
2023-05-23T14:09:57.354Z,36.58
2023-05-23T14:12:27.865Z,39.75
2023-05-23T14:14:58.117Z,37.25
2023-05-23T14:17:28.944Z,39.03
2023-05-23T14:19:59.140Z,36.63
2023-05-23T14:22:29.076Z,44.35
2023-05-23T14:27:28.627Z,42.33
2023-05-23T14:29:58.518Z,44.30
2023-05-23T14:34:57.659Z,45.22
2023-05-23T14:39:57.190Z,47.08
2023-05-23T14:42:27.298Z,45.10
2023-05-23T14:44:57.368Z,48.88
2023-05-23T14:47:27.722Z,48.38
2023-05-23T14:49:57.884Z,46.55
2023-05-23T14:52:31.359Z,50.45
2023-05-23T14:55:02.656Z,48.38
2023-05-23T14:57:32.855Z,50.95
2023-05-23T15:00:04.748Z,55.88
2023-05-23T15:02:35.313Z,54.55
2023-05-23T15:05:06.807Z,55.08
2023-05-23T15:07:37.134Z,54.80
2023-05-23T15:10:10.511Z,57.20
2023-05-23T15:12:40.434Z,53.25
2023-05-23T15:17:39.952Z,55.40
2023-05-23T15:20:11.669Z,52.35
2023-05-23T15:22:42.094Z,50.33
2023-05-23T15:25:12.916Z,50.08
2023-05-23T15:27:43.145Z,49.53
2023-05-23T15:30:13.977Z,46.40
2023-05-23T15:32:44.252Z,48.60
2023-05-23T15:35:14.610Z,49.00
2023-05-23T15:37:44.850Z,49.25
2023-05-23T15:40:15.521Z,46.35
2023-05-23T15:42:45.737Z,43.90
2023-05-23T15:45:16.077Z,47.25
2023-05-23T15:47:46.311Z,46.65
2023-05-23T15:50:16.548Z,46.17
2023-05-23T15:52:46.698Z,45.22
2023-05-23T15:55:17.381Z,44.00
2023-05-23T15:57:47.581Z,47.85
2023-05-23T16:00:18.084Z,44.00
2023-05-23T16:02:48.386Z,45.78
2023-05-23T16:05:18.703Z,50.03
2023-05-23T16:07:48.921Z,48.13
2023-05-23T16:10:19.228Z,51.67
2023-05-23T16:12:52.756Z,47.00
2023-05-23T16:15:22.981Z,48.88
2023-05-23T16:17:53.219Z,44.47
2023-05-23T16:20:23.617Z,41.03
2023-05-23T16:22:59.516Z,40.97
2023-05-23T16:25:29.738Z,38.75
2023-05-23T16:27:59.954Z,41.22
2023-05-23T16:30:30.338Z,38.90
2023-05-23T16:33:00.495Z,38.47
2023-05-23T16:35:30.776Z,36.90
2023-05-23T16:38:01.030Z,39.45
2023-05-23T16:40:31.204Z,40.00
2023-05-23T16:43:01.386Z,42.13
2023-05-23T16:45:31.790Z,41.67
2023-05-23T16:48:02.896Z,38.35
2023-05-23T16:50:33.181Z,41.63
2023-05-23T16:53:03.336Z,38.20
2023-05-23T16:55:33.449Z,39.88
2023-05-23T16:58:03.831Z,38.30
2023-05-23T17:00:34.140Z,39.85
2023-05-23T17:03:04.440Z,41.53
2023-05-23T17:05:35.918Z,39.10
2023-05-23T17:08:06.043Z,40.28
2023-05-23T17:10:36.780Z,36.13
2023-05-23T17:13:07.372Z,35.42
2023-05-23T17:15:38.086Z,35.45
2023-05-23T17:18:08.747Z,33.63
2023-05-23T17:20:38.908Z,33.95
2023-05-23T17:23:09.134Z,34.25
2023-05-23T17:25:39.651Z,32.47
2023-05-23T17:28:10.026Z,32.85
2023-05-23T17:30:40.119Z,35.33
2023-05-23T17:33:12.596Z,31.65
2023-05-23T17:35:42.995Z,33.58
2023-05-23T17:38:13.567Z,36.65
2023-05-23T17:40:43.970Z,35.28
2023-05-23T17:43:15.179Z,34.72
2023-05-23T17:45:45.145Z,35.30
2023-05-23T17:50:44.716Z,34.20
2023-05-23T17:53:17.889Z,35.80
2023-05-23T17:55:49.086Z,34.88
2023-05-23T17:58:19.200Z,38.10
2023-05-23T18:00:49.869Z,36.38
2023-05-23T18:03:19.895Z,36.83
2023-05-23T18:08:19.328Z,37.70
2023-05-23T18:10:49.211Z,34.90
2023-05-23T18:13:21.871Z,34.63
2023-05-23T18:15:51.646Z,33.33
2023-05-23T18:18:21.413Z,35.90
2023-05-23T18:20:51.228Z,36.15
2023-05-23T18:23:21.102Z,35.92
2023-05-23T18:25:50.818Z,33.65
2023-05-23T18:28:20.547Z,33.25
2023-05-23T18:30:50.240Z,36.40
2023-05-23T18:33:19.993Z,34.78
2023-05-23T18:35:49.936Z,37.03
2023-05-23T18:38:19.668Z,41.42
2023-05-23T18:40:49.633Z,39.90
2023-05-23T18:45:48.691Z,39.53
2023-05-23T18:48:18.446Z,36.20
2023-05-23T18:50:48.789Z,33.70
2023-05-23T18:53:18.623Z,36.67
2023-05-23T18:55:48.321Z,35.25
2023-05-23T18:58:18.242Z,34.65
2023-05-23T19:00:48.039Z,32.72
2023-05-23T19:03:19.430Z,34.03
2023-05-23T19:05:49.495Z,34.08
2023-05-23T19:10:49.085Z,32.35
2023-05-23T19:13:20.667Z,34.15
2023-05-23T19:15:53.716Z,35.83
2023-05-23T19:18:24.188Z,33.42
2023-05-23T19:20:53.968Z,35.05
2023-05-23T19:23:23.836Z,31.45
2023-05-23T19:25:53.550Z,35.60
2023-05-23T19:28:23.375Z,34.35
2023-05-23T19:30:53.531Z,34.83
2023-05-23T19:33:24.092Z,34.33
2023-05-23T19:35:54.409Z,35.90
2023-05-23T19:38:24.270Z,32.60
2023-05-23T19:40:54.132Z,33.22
2023-05-23T19:43:24.086Z,33.75
2023-05-23T19:45:53.925Z,34.10
2023-05-23T19:48:23.574Z,35.80
2023-05-23T19:50:53.345Z,32.78
2023-05-23T19:53:24.510Z,37.00
2023-05-23T19:55:54.369Z,36.13
2023-05-23T19:58:24.067Z,39.05
2023-05-23T20:00:53.714Z,35.70
2023-05-23T20:03:24.062Z,34.80
2023-05-23T20:05:53.824Z,37.83
2023-05-23T20:08:23.766Z,35.75
2023-05-23T20:13:23.227Z,36.88
2023-05-23T20:15:53.070Z,34.78
2023-05-23T20:18:23.114Z,37.67
2023-05-23T20:23:22.130Z,39.15
2023-05-23T20:28:20.869Z,36.15
2023-05-23T20:30:50.701Z,38.45
2023-05-23T20:33:20.678Z,36.35
2023-05-23T20:38:21.548Z,37.70
2023-05-23T20:40:52.454Z,37.58
2023-05-23T20:43:24.858Z,40.25
2023-05-23T20:45:54.586Z,37.85
2023-05-23T20:48:24.245Z,36.55
2023-05-23T20:50:53.910Z,36.72
2023-05-23T20:53:23.652Z,37.28
2023-05-23T20:55:54.123Z,37.47
2023-05-23T20:58:24.111Z,39.97
2023-05-23T21:03:23.205Z,40.00
2023-05-23T21:05:53.283Z,41.40
2023-05-23T21:13:24.386Z,42.13
2023-05-23T21:15:54.094Z,39.97
2023-05-23T21:18:24.122Z,38.75
2023-05-23T21:23:22.894Z,42.88
2023-05-23T21:25:52.688Z,42.47
2023-05-23T21:28:22.748Z,45.25
2023-05-23T21:30:52.854Z,44.15
2023-05-23T21:33:22.659Z,43.30
2023-05-23T21:35:52.843Z,40.75
2023-05-23T21:38:22.570Z,42.97
2023-05-23T21:40:52.240Z,43.65
2023-05-23T21:43:22.036Z,47.58
2023-05-23T21:45:51.856Z,46.17
2023-05-23T21:48:21.503Z,44.58
2023-05-23T21:50:51.198Z,45.92
2023-05-23T21:53:20.965Z,45.83
2023-05-23T21:55:50.738Z,45.53
2023-05-23T21:58:20.491Z,47.33
2023-05-23T22:00:50.252Z,46.60
2023-05-23T22:03:20.017Z,44.08
2023-05-23T22:05:49.749Z,46.40
2023-05-23T22:08:19.739Z,43.38
2023-05-23T22:10:50.004Z,44.80
2023-05-23T22:13:19.772Z,44.97
2023-05-23T22:15:50.790Z,44.17
2023-05-23T22:18:20.648Z,45.35
2023-05-23T22:20:54.017Z,40.97
2023-05-23T22:23:23.872Z,42.13
2023-05-23T22:25:53.588Z,46.67
2023-05-23T22:28:23.347Z,47.72
2023-05-23T22:30:53.569Z,46.45
2023-05-23T22:35:55.333Z,43.25
2023-05-23T22:38:25.030Z,45.85
2023-05-23T22:40:54.649Z,45.80
2023-05-23T22:43:24.491Z,44.75
2023-05-23T22:45:54.156Z,45.67
2023-05-23T22:48:23.853Z,44.75
2023-05-23T22:50:58.549Z,46.75
2023-05-23T22:53:28.334Z,44.35
2023-05-23T22:55:58.192Z,45.97
2023-05-23T22:58:28.279Z,44.95
2023-05-23T23:03:29.876Z,43.88
2023-05-23T23:05:59.517Z,47.13
2023-05-23T23:08:29.236Z,45.85
2023-05-23T23:10:58.883Z,43.63
2023-05-23T23:13:28.689Z,43.70
2023-05-23T23:16:00.355Z,41.78
2023-05-23T23:18:30.056Z,43.50
2023-05-23T23:20:59.785Z,40.85
2023-05-23T23:23:29.665Z,91.30
2023-05-23T23:26:00.951Z,60.55
2023-05-23T23:28:30.914Z,56.85
2023-05-23T23:31:00.671Z,47.97
2023-05-23T23:33:30.571Z,58.60
2023-05-23T23:36:00.504Z,57.63
2023-05-23T23:38:30.239Z,52.03
2023-05-23T23:40:59.849Z,52.10
2023-05-23T23:43:32.049Z,55.75
2023-05-23T23:46:02.268Z,49.65
2023-05-23T23:48:32.106Z,45.70
2023-05-23T23:51:01.959Z,45.58
2023-05-23T23:53:31.799Z,41.63
2023-05-23T23:56:01.528Z,44.72
2023-05-23T23:58:31.202Z,44.08
